sensor_id;sensor_type;location;lat;lon;timestamp;P1;durP1;ratioP1;P2;durP2;ratioP2
71320;SDS011;59118;54.322;18.576;2022-10-16T00:02:17;63.08;;;26.05;;
71320;SDS011;59118;54.322;18.576;2022-10-16T00:04:43;57.28;;;25.40;;
71320;SDS011;59118;54.322;18.576;2022-10-16T00:07:10;58.63;;;25.55;;
71320;SDS011;59118;54.322;18.576;2022-10-16T00:09:36;56.50;;;25.08;;
71320;SDS011;59118;54.322;18.576;2022-10-16T00:12:03;59.60;;;26.57;;
71320;SDS011;59118;54.322;18.576;2022-10-16T00:14:32;56.05;;;25.67;;
71320;SDS011;59118;54.322;18.576;2022-10-16T00:16:59;57.03;;;24.73;;
71320;SDS011;59118;54.322;18.576;2022-10-16T00:19:25;56.85;;;24.88;;
71320;SDS011;59118;54.322;18.576;2022-10-16T00:21:52;57.25;;;22.17;;
71320;SDS011;59118;54.322;18.576;2022-10-16T00:24:19;57.70;;;24.43;;
71320;SDS011;59118;54.322;18.576;2022-10-16T00:26:45;51.95;;;21.90;;
71320;SDS011;59118;54.322;18.576;2022-10-16T00:29:17;55.20;;;23.30;;
71320;SDS011;59118;54.322;18.576;2022-10-16T00:31:43;56.83;;;23.58;;
71320;SDS011;59118;54.322;18.576;2022-10-16T00:34:10;55.78;;;22.42;;
71320;SDS011;59118;54.322;18.576;2022-10-16T00:36:37;53.70;;;21.57;;
71320;SDS011;59118;54.322;18.576;2022-10-16T00:39:04;57.17;;;23.05;;
71320;SDS011;59118;54.322;18.576;2022-10-16T00:41:31;53.83;;;22.80;;
71320;SDS011;59118;54.322;18.576;2022-10-16T00:43:58;54.35;;;22.92;;
71320;SDS011;59118;54.322;18.576;2022-10-16T00:49:07;49.10;;;22.17;;
71320;SDS011;59118;54.322;18.576;2022-10-16T00:51:37;51.22;;;21.23;;
71320;SDS011;59118;54.322;18.576;2022-10-16T00:54:11;54.28;;;23.58;;
71320;SDS011;59118;54.322;18.576;2022-10-16T00:56:40;51.28;;;22.33;;
71320;SDS011;59118;54.322;18.576;2022-10-16T00:59:10;45.53;;;20.85;;
71320;SDS011;59118;54.322;18.576;2022-10-16T01:01:42;51.77;;;22.67;;
71320;SDS011;59118;54.322;18.576;2022-10-16T01:04:08;47.30;;;21.55;;
71320;SDS011;59118;54.322;18.576;2022-10-16T01:11:55;51.58;;;22.13;;
71320;SDS011;59118;54.322;18.576;2022-10-16T01:17:18;46.38;;;21.00;;
71320;SDS011;59118;54.322;18.576;2022-10-16T01:20:01;53.45;;;21.15;;
71320;SDS011;59118;54.322;18.576;2022-10-16T01:25:19;53.38;;;23.33;;
71320;SDS011;59118;54.322;18.576;2022-10-16T01:27:58;49.17;;;20.23;;
71320;SDS011;59118;54.322;18.576;2022-10-16T01:30:28;44.20;;;20.00;;
71320;SDS011;59118;54.322;18.576;2022-10-16T01:33:08;45.75;;;20.58;;
71320;SDS011;59118;54.322;18.576;2022-10-16T01:35:39;44.33;;;19.05;;
71320;SDS011;59118;54.322;18.576;2022-10-16T01:38:12;40.25;;;20.00;;
71320;SDS011;59118;54.322;18.576;2022-10-16T01:40:44;47.13;;;20.10;;
71320;SDS011;59118;54.322;18.576;2022-10-16T01:43:14;41.42;;;18.23;;
71320;SDS011;59118;54.322;18.576;2022-10-16T01:45:42;41.58;;;18.95;;
71320;SDS011;59118;54.322;18.576;2022-10-16T01:48:11;43.80;;;20.20;;
71320;SDS011;59118;54.322;18.576;2022-10-16T01:50:39;38.78;;;16.92;;
71320;SDS011;59118;54.322;18.576;2022-10-16T01:53:08;40.67;;;19.60;;
71320;SDS011;59118;54.322;18.576;2022-10-16T01:55:41;40.67;;;18.42;;
71320;SDS011;59118;54.322;18.576;2022-10-16T01:58:11;36.55;;;17.27;;
71320;SDS011;59118;54.322;18.576;2022-10-16T02:00:39;33.80;;;16.98;;
71320;SDS011;59118;54.322;18.576;2022-10-16T02:03:08;30.50;;;15.18;;
71320;SDS011;59118;54.322;18.576;2022-10-16T02:05:39;31.70;;;16.67;;
71320;SDS011;59118;54.322;18.576;2022-10-16T02:08:08;32.90;;;16.10;;
71320;SDS011;59118;54.322;18.576;2022-10-16T02:10:35;31.42;;;16.42;;
71320;SDS011;59118;54.322;18.576;2022-10-16T02:15:52;36.08;;;15.98;;
71320;SDS011;59118;54.322;18.576;2022-10-16T02:18:19;33.80;;;15.37;;
71320;SDS011;59118;54.322;18.576;2022-10-16T02:20:48;35.05;;;16.77;;
71320;SDS011;59118;54.322;18.576;2022-10-16T02:23:19;34.05;;;17.13;;
71320;SDS011;59118;54.322;18.576;2022-10-16T02:25:51;30.40;;;15.32;;
71320;SDS011;59118;54.322;18.576;2022-10-16T02:28:23;28.30;;;15.10;;
71320;SDS011;59118;54.322;18.576;2022-10-16T02:30:56;31.53;;;16.80;;
71320;SDS011;59118;54.322;18.576;2022-10-16T02:33:25;30.25;;;16.38;;
71320;SDS011;59118;54.322;18.576;2022-10-16T02:35:52;30.83;;;16.13;;
71320;SDS011;59118;54.322;18.576;2022-10-16T02:38:20;26.90;;;14.90;;
71320;SDS011;59118;54.322;18.576;2022-10-16T02:40:47;29.23;;;15.82;;
71320;SDS011;59118;54.322;18.576;2022-10-16T02:43:14;30.07;;;15.60;;
71320;SDS011;59118;54.322;18.576;2022-10-16T02:45:40;33.10;;;16.95;;
71320;SDS011;59118;54.322;18.576;2022-10-16T02:48:07;30.88;;;16.83;;
71320;SDS011;59118;54.322;18.576;2022-10-16T02:50:33;33.45;;;16.67;;
71320;SDS011;59118;54.322;18.576;2022-10-16T02:53:00;34.38;;;18.45;;
71320;SDS011;59118;54.322;18.576;2022-10-16T02:55:27;30.67;;;16.47;;
71320;SDS011;59118;54.322;18.576;2022-10-16T02:57:54;35.42;;;17.73;;
71320;SDS011;59118;54.322;18.576;2022-10-16T03:00:21;32.25;;;17.65;;
71320;SDS011;59118;54.322;18.576;2022-10-16T03:02:47;32.03;;;17.60;;
71320;SDS011;59118;54.322;18.576;2022-10-16T03:05:14;32.00;;;17.08;;
71320;SDS011;59118;54.322;18.576;2022-10-16T03:07:40;32.20;;;17.10;;
71320;SDS011;59118;54.322;18.576;2022-10-16T03:10:08;30.80;;;16.50;;
71320;SDS011;59118;54.322;18.576;2022-10-16T03:12:35;34.00;;;16.67;;
71320;SDS011;59118;54.322;18.576;2022-10-16T03:15:01;30.60;;;15.73;;
71320;SDS011;59118;54.322;18.576;2022-10-16T03:17:29;32.72;;;16.80;;
71320;SDS011;59118;54.322;18.576;2022-10-16T03:19:55;33.00;;;18.47;;
71320;SDS011;59118;54.322;18.576;2022-10-16T03:22:22;35.47;;;18.45;;
71320;SDS011;59118;54.322;18.576;2022-10-16T03:24:48;36.67;;;16.58;;
71320;SDS011;59118;54.322;18.576;2022-10-16T03:27:15;30.67;;;16.02;;
71320;SDS011;59118;54.322;18.576;2022-10-16T03:29:41;34.10;;;15.93;;
71320;SDS011;59118;54.322;18.576;2022-10-16T03:32:08;34.13;;;17.67;;
71320;SDS011;59118;54.322;18.576;2022-10-16T03:34:34;34.53;;;17.63;;
71320;SDS011;59118;54.322;18.576;2022-10-16T03:37:00;34.17;;;17.67;;
71320;SDS011;59118;54.322;18.576;2022-10-16T03:39:27;37.17;;;17.85;;
71320;SDS011;59118;54.322;18.576;2022-10-16T03:41:53;33.35;;;17.33;;
71320;SDS011;59118;54.322;18.576;2022-10-16T03:44:20;30.97;;;16.10;;
71320;SDS011;59118;54.322;18.576;2022-10-16T03:46:46;33.72;;;16.77;;
71320;SDS011;59118;54.322;18.576;2022-10-16T03:49:13;31.60;;;16.98;;
71320;SDS011;59118;54.322;18.576;2022-10-16T03:51:39;31.10;;;16.95;;
71320;SDS011;59118;54.322;18.576;2022-10-16T03:54:06;34.88;;;17.35;;
71320;SDS011;59118;54.322;18.576;2022-10-16T03:56:33;37.63;;;18.20;;
71320;SDS011;59118;54.322;18.576;2022-10-16T03:58:59;37.03;;;18.20;;
71320;SDS011;59118;54.322;18.576;2022-10-16T04:01:26;37.15;;;17.73;;
71320;SDS011;59118;54.322;18.576;2022-10-16T04:03:52;33.75;;;16.17;;
71320;SDS011;59118;54.322;18.576;2022-10-16T04:06:18;32.80;;;18.25;;
71320;SDS011;59118;54.322;18.576;2022-10-16T04:08:45;32.53;;;17.33;;
71320;SDS011;59118;54.322;18.576;2022-10-16T04:11:12;34.08;;;17.90;;
71320;SDS011;59118;54.322;18.576;2022-10-16T04:13:38;34.72;;;17.52;;
71320;SDS011;59118;54.322;18.576;2022-10-16T04:16:05;34.47;;;18.25;;
71320;SDS011;59118;54.322;18.576;2022-10-16T04:18:31;33.75;;;16.55;;
71320;SDS011;59118;54.322;18.576;2022-10-16T04:21:04;35.33;;;17.33;;
71320;SDS011;59118;54.322;18.576;2022-10-16T04:23:32;33.63;;;17.83;;
71320;SDS011;59118;54.322;18.576;2022-10-16T04:25:59;33.50;;;17.05;;
71320;SDS011;59118;54.322;18.576;2022-10-16T04:28:26;34.15;;;16.65;;
71320;SDS011;59118;54.322;18.576;2022-10-16T04:30:53;37.13;;;18.90;;
71320;SDS011;59118;54.322;18.576;2022-10-16T04:33:19;34.20;;;18.27;;
71320;SDS011;59118;54.322;18.576;2022-10-16T04:35:46;36.75;;;18.30;;
71320;SDS011;59118;54.322;18.576;2022-10-16T04:38:12;33.22;;;17.98;;
71320;SDS011;59118;54.322;18.576;2022-10-16T04:40:39;34.70;;;17.95;;
71320;SDS011;59118;54.322;18.576;2022-10-16T04:43:05;37.67;;;18.75;;
71320;SDS011;59118;54.322;18.576;2022-10-16T04:45:32;35.47;;;17.77;;
71320;SDS011;59118;54.322;18.576;2022-10-16T04:47:58;38.42;;;19.55;;
71320;SDS011;59118;54.322;18.576;2022-10-16T04:50:25;38.13;;;18.85;;
71320;SDS011;59118;54.322;18.576;2022-10-16T04:52:52;36.95;;;18.10;;
71320;SDS011;59118;54.322;18.576;2022-10-16T04:55:19;38.25;;;18.52;;
71320;SDS011;59118;54.322;18.576;2022-10-16T04:57:45;36.07;;;17.97;;
71320;SDS011;59118;54.322;18.576;2022-10-16T05:00:12;43.88;;;20.55;;
71320;SDS011;59118;54.322;18.576;2022-10-16T05:02:38;40.45;;;20.98;;
71320;SDS011;59118;54.322;18.576;2022-10-16T05:05:05;34.67;;;15.52;;
71320;SDS011;59118;54.322;18.576;2022-10-16T05:07:32;41.78;;;19.25;;
71320;SDS011;59118;54.322;18.576;2022-10-16T05:09:58;41.27;;;19.17;;
71320;SDS011;59118;54.322;18.576;2022-10-16T05:12:25;41.17;;;20.55;;
71320;SDS011;59118;54.322;18.576;2022-10-16T05:14:51;33.58;;;16.08;;
71320;SDS011;59118;54.322;18.576;2022-10-16T05:17:18;44.05;;;20.38;;
71320;SDS011;59118;54.322;18.576;2022-10-16T05:19:44;38.83;;;18.52;;
71320;SDS011;59118;54.322;18.576;2022-10-16T05:22:11;41.30;;;20.97;;
71320;SDS011;59118;54.322;18.576;2022-10-16T05:24:37;43.30;;;22.20;;
71320;SDS011;59118;54.322;18.576;2022-10-16T05:27:04;42.70;;;21.02;;
71320;SDS011;59118;54.322;18.576;2022-10-16T05:29:30;45.92;;;22.67;;
71320;SDS011;59118;54.322;18.576;2022-10-16T05:31:58;42.85;;;22.80;;
71320;SDS011;59118;54.322;18.576;2022-10-16T05:34:24;44.13;;;21.70;;
71320;SDS011;59118;54.322;18.576;2022-10-16T05:36:50;42.85;;;21.95;;
71320;SDS011;59118;54.322;18.576;2022-10-16T05:39:17;46.00;;;22.70;;
71320;SDS011;59118;54.322;18.576;2022-10-16T05:41:44;42.80;;;22.40;;
71320;SDS011;59118;54.322;18.576;2022-10-16T05:44:11;42.75;;;21.27;;
71320;SDS011;59118;54.322;18.576;2022-10-16T05:46:37;45.17;;;23.73;;
71320;SDS011;59118;54.322;18.576;2022-10-16T05:49:04;47.67;;;22.27;;
71320;SDS011;59118;54.322;18.576;2022-10-16T05:51:30;41.72;;;22.10;;
71320;SDS011;59118;54.322;18.576;2022-10-16T05:53:57;45.17;;;22.67;;
71320;SDS011;59118;54.322;18.576;2022-10-16T05:56:23;47.33;;;23.85;;
71320;SDS011;59118;54.322;18.576;2022-10-16T05:58:50;49.00;;;22.40;;
71320;SDS011;59118;54.322;18.576;2022-10-16T06:01:18;42.47;;;23.15;;
71320;SDS011;59118;54.322;18.576;2022-10-16T06:03:45;46.25;;;23.85;;
71320;SDS011;59118;54.322;18.576;2022-10-16T06:06:14;48.53;;;23.52;;
71320;SDS011;59118;54.322;18.576;2022-10-16T06:08:45;43.85;;;22.13;;
71320;SDS011;59118;54.322;18.576;2022-10-16T06:11:16;44.90;;;23.20;;
71320;SDS011;59118;54.322;18.576;2022-10-16T06:14:05;44.20;;;22.67;;
71320;SDS011;59118;54.322;18.576;2022-10-16T06:16:35;45.20;;;23.30;;
71320;SDS011;59118;54.322;18.576;2022-10-16T06:19:02;45.25;;;23.50;;
71320;SDS011;59118;54.322;18.576;2022-10-16T06:21:33;48.20;;;25.23;;
71320;SDS011;59118;54.322;18.576;2022-10-16T06:24:00;38.80;;;21.43;;
71320;SDS011;59118;54.322;18.576;2022-10-16T06:26:28;45.38;;;23.88;;
71320;SDS011;59118;54.322;18.576;2022-10-16T06:28:56;47.15;;;24.52;;
71320;SDS011;59118;54.322;18.576;2022-10-16T06:31:23;41.33;;;22.00;;
71320;SDS011;59118;54.322;18.576;2022-10-16T06:33:54;42.53;;;22.60;;
71320;SDS011;59118;54.322;18.576;2022-10-16T06:36:20;41.07;;;23.20;;
71320;SDS011;59118;54.322;18.576;2022-10-16T06:38:47;43.10;;;24.23;;
71320;SDS011;59118;54.322;18.576;2022-10-16T06:41:15;41.53;;;23.45;;
71320;SDS011;59118;54.322;18.576;2022-10-16T06:43:45;43.28;;;23.45;;
71320;SDS011;59118;54.322;18.576;2022-10-16T06:46:14;42.13;;;23.13;;
71320;SDS011;59118;54.322;18.576;2022-10-16T06:48:42;43.53;;;23.83;;
71320;SDS011;59118;54.322;18.576;2022-10-16T06:51:09;44.90;;;23.13;;
71320;SDS011;59118;54.322;18.576;2022-10-16T06:53:39;44.92;;;23.75;;
71320;SDS011;59118;54.322;18.576;2022-10-16T06:56:27;46.60;;;23.83;;
71320;SDS011;59118;54.322;18.576;2022-10-16T06:58:57;44.97;;;24.27;;
71320;SDS011;59118;54.322;18.576;2022-10-16T07:01:25;45.03;;;25.17;;
71320;SDS011;59118;54.322;18.576;2022-10-16T07:03:52;49.03;;;25.00;;
71320;SDS011;59118;54.322;18.576;2022-10-16T07:06:20;43.22;;;23.63;;
71320;SDS011;59118;54.322;18.576;2022-10-16T07:08:48;44.55;;;23.75;;
71320;SDS011;59118;54.322;18.576;2022-10-16T07:11:16;49.33;;;25.08;;
71320;SDS011;59118;54.322;18.576;2022-10-16T07:13:45;42.43;;;23.00;;
71320;SDS011;59118;54.322;18.576;2022-10-16T07:16:20;42.30;;;22.25;;
71320;SDS011;59118;54.322;18.576;2022-10-16T07:18:48;44.63;;;24.05;;
71320;SDS011;59118;54.322;18.576;2022-10-16T07:21:21;41.70;;;20.98;;
71320;SDS011;59118;54.322;18.576;2022-10-16T07:23:52;43.90;;;23.08;;
71320;SDS011;59118;54.322;18.576;2022-10-16T07:26:19;47.23;;;24.20;;
71320;SDS011;59118;54.322;18.576;2022-10-16T07:28:45;41.05;;;20.38;;
71320;SDS011;59118;54.322;18.576;2022-10-16T07:31:12;47.55;;;22.45;;
71320;SDS011;59118;54.322;18.576;2022-10-16T07:33:40;48.42;;;23.02;;
71320;SDS011;59118;54.322;18.576;2022-10-16T07:36:09;49.13;;;25.33;;
71320;SDS011;59118;54.322;18.576;2022-10-16T07:38:41;50.20;;;25.87;;
71320;SDS011;59118;54.322;18.576;2022-10-16T07:41:10;48.15;;;24.65;;
71320;SDS011;59118;54.322;18.576;2022-10-16T07:43:44;44.95;;;23.92;;
71320;SDS011;59118;54.322;18.576;2022-10-16T07:46:12;46.85;;;24.33;;
71320;SDS011;59118;54.322;18.576;2022-10-16T07:48:38;45.28;;;23.15;;
71320;SDS011;59118;54.322;18.576;2022-10-16T07:51:05;46.70;;;25.60;;
71320;SDS011;59118;54.322;18.576;2022-10-16T07:53:33;46.05;;;24.85;;
71320;SDS011;59118;54.322;18.576;2022-10-16T07:56:00;47.17;;;24.85;;
71320;SDS011;59118;54.322;18.576;2022-10-16T07:58:28;46.25;;;24.25;;
71320;SDS011;59118;54.322;18.576;2022-10-16T08:00:55;47.08;;;23.95;;
71320;SDS011;59118;54.322;18.576;2022-10-16T08:03:23;44.00;;;22.40;;
71320;SDS011;59118;54.322;18.576;2022-10-16T08:05:49;47.58;;;24.20;;
71320;SDS011;59118;54.322;18.576;2022-10-16T08:08:16;45.92;;;24.20;;
71320;SDS011;59118;54.322;18.576;2022-10-16T08:10:44;42.15;;;21.40;;
71320;SDS011;59118;54.322;18.576;2022-10-16T08:13:10;44.90;;;23.15;;
71320;SDS011;59118;54.322;18.576;2022-10-16T08:15:37;39.33;;;21.60;;
71320;SDS011;59118;54.322;18.576;2022-10-16T08:18:04;43.17;;;21.92;;
71320;SDS011;59118;54.322;18.576;2022-10-16T08:20:31;43.20;;;23.35;;
71320;SDS011;59118;54.322;18.576;2022-10-16T08:22:58;40.03;;;22.52;;
71320;SDS011;59118;54.322;18.576;2022-10-16T08:25:25;39.72;;;20.02;;
71320;SDS011;59118;54.322;18.576;2022-10-16T08:27:52;41.83;;;21.57;;
71320;SDS011;59118;54.322;18.576;2022-10-16T08:30:19;46.97;;;20.95;;
71320;SDS011;59118;54.322;18.576;2022-10-16T08:32:47;38.47;;;18.90;;
71320;SDS011;59118;54.322;18.576;2022-10-16T08:35:16;41.67;;;21.40;;
71320;SDS011;59118;54.322;18.576;2022-10-16T08:37:42;38.92;;;20.95;;
71320;SDS011;59118;54.322;18.576;2022-10-16T08:40:43;43.17;;;22.03;;
71320;SDS011;59118;54.322;18.576;2022-10-16T08:46:06;38.97;;;20.05;;
71320;SDS011;59118;54.322;18.576;2022-10-16T08:51:24;37.25;;;19.15;;
71320;SDS011;59118;54.322;18.576;2022-10-16T08:53:56;41.67;;;21.20;;
71320;SDS011;59118;54.322;18.576;2022-10-16T08:56:24;45.33;;;24.25;;
71320;SDS011;59118;54.322;18.576;2022-10-16T08:58:52;38.33;;;19.65;;
71320;SDS011;59118;54.322;18.576;2022-10-16T09:01:40;37.38;;;19.10;;
71320;SDS011;59118;54.322;18.576;2022-10-16T09:09:42;40.40;;;21.08;;
71320;SDS011;59118;54.322;18.576;2022-10-16T09:18:17;35.75;;;19.80;;
71320;SDS011;59118;54.322;18.576;2022-10-16T09:20:53;37.10;;;18.87;;
71320;SDS011;59118;54.322;18.576;2022-10-16T09:23:35;33.95;;;18.83;;
71320;SDS011;59118;54.322;18.576;2022-10-16T09:26:03;32.20;;;18.20;;
71320;SDS011;59118;54.322;18.576;2022-10-16T09:28:31;33.97;;;18.40;;
71320;SDS011;59118;54.322;18.576;2022-10-16T09:30:58;34.70;;;19.42;;
71320;SDS011;59118;54.322;18.576;2022-10-16T09:33:27;34.60;;;19.87;;
71320;SDS011;59118;54.322;18.576;2022-10-16T09:35:56;39.13;;;19.20;;
71320;SDS011;59118;54.322;18.576;2022-10-16T09:40:52;30.13;;;16.20;;
71320;SDS011;59118;54.322;18.576;2022-10-16T09:44:01;35.85;;;19.15;;
71320;SDS011;59118;54.322;18.576;2022-10-16T09:46:27;32.77;;;18.47;;
71320;SDS011;59118;54.322;18.576;2022-10-16T09:49:00;32.08;;;17.85;;
71320;SDS011;59118;54.322;18.576;2022-10-16T09:51:30;32.45;;;17.50;;
71320;SDS011;59118;54.322;18.576;2022-10-16T09:56:34;31.30;;;18.30;;
71320;SDS011;59118;54.322;18.576;2022-10-16T09:59:08;32.20;;;17.60;;
71320;SDS011;59118;54.322;18.576;2022-10-16T10:01:38;32.85;;;17.20;;
71320;SDS011;59118;54.322;18.576;2022-10-16T10:04:11;30.48;;;17.50;;
71320;SDS011;59118;54.322;18.576;2022-10-16T10:06:42;30.55;;;16.58;;
71320;SDS011;59118;54.322;18.576;2022-10-16T10:09:17;29.02;;;16.92;;
71320;SDS011;59118;54.322;18.576;2022-10-16T10:11:49;29.33;;;16.23;;
71320;SDS011;59118;54.322;18.576;2022-10-16T10:17:23;33.22;;;17.92;;
71320;SDS011;59118;54.322;18.576;2022-10-16T10:19:54;31.38;;;17.15;;
71320;SDS011;59118;54.322;18.576;2022-10-16T10:24:59;35.80;;;18.00;;
71320;SDS011;59118;54.322;18.576;2022-10-16T10:27:49;34.03;;;18.13;;
71320;SDS011;59118;54.322;18.576;2022-10-16T10:30:41;35.92;;;18.10;;
71320;SDS011;59118;54.322;18.576;2022-10-16T10:33:31;33.28;;;17.50;;
71320;SDS011;59118;54.322;18.576;2022-10-16T10:39:00;34.83;;;18.10;;
71320;SDS011;59118;54.322;18.576;2022-10-16T10:41:33;32.47;;;17.20;;
71320;SDS011;59118;54.322;18.576;2022-10-16T10:50:03;29.05;;;17.13;;
71320;SDS011;59118;54.322;18.576;2022-10-16T10:55:23;33.08;;;16.52;;
71320;SDS011;59118;54.322;18.576;2022-10-16T10:58:15;30.95;;;16.98;;
71320;SDS011;59118;54.322;18.576;2022-10-16T11:01:08;25.80;;;15.25;;
71320;SDS011;59118;54.322;18.576;2022-10-16T11:03:50;30.98;;;15.20;;
71320;SDS011;59118;54.322;18.576;2022-10-16T11:06:39;30.77;;;17.50;;
71320;SDS011;59118;54.322;18.576;2022-10-16T11:09:15;30.63;;;16.30;;
71320;SDS011;59118;54.322;18.576;2022-10-16T11:11:45;29.75;;;16.95;;
71320;SDS011;59118;54.322;18.576;2022-10-16T11:14:52;28.88;;;16.17;;
71320;SDS011;59118;54.322;18.576;2022-10-16T11:17:12;26.55;;;15.90;;
71320;SDS011;59118;54.322;18.576;2022-10-16T11:19:46;25.13;;;14.53;;
71320;SDS011;59118;54.322;18.576;2022-10-16T11:25:16;25.17;;;14.80;;
71320;SDS011;59118;54.322;18.576;2022-10-16T11:30:26;25.70;;;14.57;;
71320;SDS011;59118;54.322;18.576;2022-10-16T11:36:19;23.23;;;13.25;;
71320;SDS011;59118;54.322;18.576;2022-10-16T11:39:00;23.75;;;13.10;;
71320;SDS011;59118;54.322;18.576;2022-10-16T11:41:56;22.25;;;13.25;;
71320;SDS011;59118;54.322;18.576;2022-10-16T11:47:33;19.57;;;11.57;;
71320;SDS011;59118;54.322;18.576;2022-10-16T11:53:15;19.27;;;10.80;;
71320;SDS011;59118;54.322;18.576;2022-10-16T11:55:47;18.90;;;10.45;;
71320;SDS011;59118;54.322;18.576;2022-10-16T12:00:54;18.37;;;9.93;;
71320;SDS011;59118;54.322;18.576;2022-10-16T12:03:33;18.60;;;10.20;;
71320;SDS011;59118;54.322;18.576;2022-10-16T12:08:39;15.65;;;9.30;;
71320;SDS011;59118;54.322;18.576;2022-10-16T12:17:01;15.02;;;9.07;;
71320;SDS011;59118;54.322;18.576;2022-10-16T12:19:29;15.68;;;9.57;;
71320;SDS011;59118;54.322;18.576;2022-10-16T12:21:58;15.73;;;10.18;;
71320;SDS011;59118;54.322;18.576;2022-10-16T12:24:36;14.15;;;9.40;;
71320;SDS011;59118;54.322;18.576;2022-10-16T12:29:54;15.13;;;7.82;;
71320;SDS011;59118;54.322;18.576;2022-10-16T12:35:19;12.68;;;7.25;;
71320;SDS011;59118;54.322;18.576;2022-10-16T12:37:47;12.23;;;7.65;;
71320;SDS011;59118;54.322;18.576;2022-10-16T12:40:24;13.90;;;8.30;;
71320;SDS011;59118;54.322;18.576;2022-10-16T12:42:53;16.55;;;8.30;;
71320;SDS011;59118;54.322;18.576;2022-10-16T12:47:50;13.27;;;7.53;;
71320;SDS011;59118;54.322;18.576;2022-10-16T12:52:58;12.63;;;7.40;;
71320;SDS011;59118;54.322;18.576;2022-10-16T12:55:26;13.63;;;7.35;;
71320;SDS011;59118;54.322;18.576;2022-10-16T13:01:00;12.25;;;7.32;;
71320;SDS011;59118;54.322;18.576;2022-10-16T13:12:12;10.30;;;6.05;;
71320;SDS011;59118;54.322;18.576;2022-10-16T13:18:02;11.50;;;6.15;;
71320;SDS011;59118;54.322;18.576;2022-10-16T13:23:21;10.63;;;6.68;;
71320;SDS011;59118;54.322;18.576;2022-10-16T13:28:34;13.05;;;6.10;;
71320;SDS011;59118;54.322;18.576;2022-10-16T13:31:02;8.98;;;5.85;;
71320;SDS011;59118;54.322;18.576;2022-10-16T13:33:33;10.77;;;6.27;;
71320;SDS011;59118;54.322;18.576;2022-10-16T13:36:02;10.65;;;5.93;;
71320;SDS011;59118;54.322;18.576;2022-10-16T13:38:31;9.95;;;6.28;;
71320;SDS011;59118;54.322;18.576;2022-10-16T13:40:59;10.43;;;6.28;;
71320;SDS011;59118;54.322;18.576;2022-10-16T13:43:48;9.48;;;6.25;;
71320;SDS011;59118;54.322;18.576;2022-10-16T13:46:19;11.50;;;6.30;;
71320;SDS011;59118;54.322;18.576;2022-10-16T13:48:59;10.75;;;6.07;;
71320;SDS011;59118;54.322;18.576;2022-10-16T13:51:27;11.25;;;6.70;;
71320;SDS011;59118;54.322;18.576;2022-10-16T13:53:55;10.90;;;6.60;;
71320;SDS011;59118;54.322;18.576;2022-10-16T13:56:25;11.45;;;6.65;;
71320;SDS011;59118;54.322;18.576;2022-10-16T14:01:33;12.23;;;7.00;;
71320;SDS011;59118;54.322;18.576;2022-10-16T14:04:02;11.77;;;7.00;;
71320;SDS011;59118;54.322;18.576;2022-10-16T14:06:31;13.20;;;6.93;;
71320;SDS011;59118;54.322;18.576;2022-10-16T14:09:05;12.45;;;6.70;;
71320;SDS011;59118;54.322;18.576;2022-10-16T14:11:33;10.67;;;7.00;;
71320;SDS011;59118;54.322;18.576;2022-10-16T14:14:03;11.00;;;6.55;;
71320;SDS011;59118;54.322;18.576;2022-10-16T14:16:30;11.80;;;6.97;;
71320;SDS011;59118;54.322;18.576;2022-10-16T14:21:28;10.68;;;6.68;;
71320;SDS011;59118;54.322;18.576;2022-10-16T14:23:55;9.67;;;6.43;;
71320;SDS011;59118;54.322;18.576;2022-10-16T14:26:23;15.73;;;7.07;;
71320;SDS011;59118;54.322;18.576;2022-10-16T14:31:59;11.10;;;6.60;;
71320;SDS011;59118;54.322;18.576;2022-10-16T14:34:28;9.88;;;6.43;;
71320;SDS011;59118;54.322;18.576;2022-10-16T14:36:57;10.83;;;7.07;;
71320;SDS011;59118;54.322;18.576;2022-10-16T14:39:27;11.80;;;6.80;;
71320;SDS011;59118;54.322;18.576;2022-10-16T14:41:55;11.80;;;6.80;;
71320;SDS011;59118;54.322;18.576;2022-10-16T14:44:26;14.20;;;7.18;;
71320;SDS011;59118;54.322;18.576;2022-10-16T14:47:09;12.00;;;7.53;;
71320;SDS011;59118;54.322;18.576;2022-10-16T14:49:40;10.97;;;7.17;;
71320;SDS011;59118;54.322;18.576;2022-10-16T14:52:11;11.65;;;7.38;;
71320;SDS011;59118;54.322;18.576;2022-10-16T14:54:38;13.65;;;8.02;;
71320;SDS011;59118;54.322;18.576;2022-10-16T14:57:05;13.70;;;8.32;;
71320;SDS011;59118;54.322;18.576;2022-10-16T14:59:33;13.73;;;8.88;;
71320;SDS011;59118;54.322;18.576;2022-10-16T15:02:02;17.13;;;8.63;;
71320;SDS011;59118;54.322;18.576;2022-10-16T15:04:59;13.38;;;8.55;;
71320;SDS011;59118;54.322;18.576;2022-10-16T15:07:37;13.68;;;8.68;;
71320;SDS011;59118;54.322;18.576;2022-10-16T15:10:03;13.23;;;8.15;;
71320;SDS011;59118;54.322;18.576;2022-10-16T15:12:30;13.27;;;8.52;;
71320;SDS011;59118;54.322;18.576;2022-10-16T15:14:57;13.33;;;8.60;;
71320;SDS011;59118;54.322;18.576;2022-10-16T15:17:23;15.43;;;9.40;;
71320;SDS011;59118;54.322;18.576;2022-10-16T15:19:50;14.10;;;9.07;;
71320;SDS011;59118;54.322;18.576;2022-10-16T15:22:17;12.70;;;8.75;;
71320;SDS011;59118;54.322;18.576;2022-10-16T15:24:44;12.02;;;8.68;;
71320;SDS011;59118;54.322;18.576;2022-10-16T15:27:10;14.13;;;8.53;;
71320;SDS011;59118;54.322;18.576;2022-10-16T15:29:37;19.23;;;9.02;;
71320;SDS011;59118;54.322;18.576;2022-10-16T15:32:03;13.48;;;8.65;;
71320;SDS011;59118;54.322;18.576;2022-10-16T15:34:30;13.65;;;8.60;;
71320;SDS011;59118;54.322;18.576;2022-10-16T15:36:58;13.73;;;8.65;;
71320;SDS011;59118;54.322;18.576;2022-10-16T15:39:25;13.50;;;8.63;;
71320;SDS011;59118;54.322;18.576;2022-10-16T15:41:52;13.00;;;8.32;;
71320;SDS011;59118;54.322;18.576;2022-10-16T15:44:19;16.05;;;8.52;;
71320;SDS011;59118;54.322;18.576;2022-10-16T15:46:48;15.30;;;8.82;;
71320;SDS011;59118;54.322;18.576;2022-10-16T15:49:15;13.00;;;8.50;;
71320;SDS011;59118;54.322;18.576;2022-10-16T15:51:42;14.57;;;8.40;;
71320;SDS011;59118;54.322;18.576;2022-10-16T15:54:08;13.57;;;8.13;;
71320;SDS011;59118;54.322;18.576;2022-10-16T15:56:35;14.15;;;8.18;;
71320;SDS011;59118;54.322;18.576;2022-10-16T15:59:03;14.32;;;7.97;;
71320;SDS011;59118;54.322;18.576;2022-10-16T16:01:33;13.05;;;8.50;;
71320;SDS011;59118;54.322;18.576;2022-10-16T16:04:00;13.67;;;8.90;;
71320;SDS011;59118;54.322;18.576;2022-10-16T16:06:45;13.77;;;8.40;;
71320;SDS011;59118;54.322;18.576;2022-10-16T16:09:12;15.88;;;8.43;;
71320;SDS011;59118;54.322;18.576;2022-10-16T16:11:42;12.88;;;8.20;;
71320;SDS011;59118;54.322;18.576;2022-10-16T16:14:12;15.98;;;8.85;;
71320;SDS011;59118;54.322;18.576;2022-10-16T16:16:39;15.30;;;8.53;;
71320;SDS011;59118;54.322;18.576;2022-10-16T16:19:07;15.15;;;8.50;;
71320;SDS011;59118;54.322;18.576;2022-10-16T16:21:38;17.25;;;9.70;;
71320;SDS011;59118;54.322;18.576;2022-10-16T16:24:05;14.98;;;9.45;;
71320;SDS011;59118;54.322;18.576;2022-10-16T16:26:35;15.73;;;9.55;;
71320;SDS011;59118;54.322;18.576;2022-10-16T16:29:05;15.20;;;9.50;;